Terminal Aerodrome Forecast
Issued by NWS

Home | Current Version | Previous Version | Text Only | Print | Product List | Glossary On
Versions: 1 2 3 4 5 6 7 8 9 10 11 12 13 14 15 16 17 18
000
FTUS44 KLZK 280700 AAA
TAFPBF
TAF AMD
KPBF 280742Z 2808/2906 14004KT 6SM BR SCT250
      TEMPO 2808/2810 1SM BR OVC003
     FM281000 14003KT P6SM FEW005 BKN250
      TEMPO 2810/2814 1/2SM FG BKN002
     FM281500 12006KT P6SM SCT025 BKN250
     FM281800 15008KT P6SM VCTS SCT030CB SCT100 BKN250=

USA.gov is the U.S. government's official web portal to all federal, state and local government web resources and services.